Time;durP1;ratioP1;P1;durP2;ratioP2;P2;SDS_P1;SDS_P2;PMS_P1;PMS_P2;Temp;Humidity;BMP_temperature;BMP_pressure;BME280_temperature;BME280_humidity;BME280_pressure;Samples;Min_cycle;Max_cycle;Signal;HPM_P1;HPM_P2
2022/04/05 00:00:51;;;;;;;8.43;6.70;;;;;;;8.91;68.71;99454.38;5016362;28;96863;-71
2022/04/05 00:03:19;;;;;;;10.27;4.22;;;;;;;8.86;67.78;99463.44;5019666;28;98818;-71
2022/04/05 00:05:45;;;;;;;7.47;3.40;;;;;;;9.18;66.43;99450.41;5016970;28;99871;-71
2022/04/05 00:08:12;;;;;;;10.38;3.38;;;;;;;9.34;65.12;99442.53;5024167;28;96798;-70
2022/04/05 00:10:41;;;;;;;8.07;2.80;;;;;;;9.14;64.89;99447.97;5020824;28;96910;-70
2022/04/05 00:13:08;;;;;;;12.05;2.78;;;;;;;8.74;66.48;99447.28;5029940;28;98984;-70
2022/04/05 00:15:37;;;;;;;10.02;2.30;;;;;;;9.17;65.41;99446.03;5027040;27;97825;-71
2022/04/05 00:18:04;;;;;;;3.88;2.15;;;;;;;9.36;64.54;99451.25;5020582;27;97173;-71
2022/04/05 00:20:32;;;;;;;6.55;2.00;;;;;;;9.10;64.51;99455.19;5020862;28;96808;-71
2022/04/05 00:22:59;;;;;;;9.93;2.70;;;;;;;9.40;64.62;99451.91;5026438;27;99227;-72
2022/04/05 00:25:26;;;;;;;8.25;1.85;;;;;;;9.76;63.12;99455.31;5016665;27;97551;-70
2022/04/05 00:27:52;;;;;;;6.50;1.83;;;;;;;9.18;63.53;99460.94;5021678;28;97083;-71
2022/04/05 00:30:19;;;;;;;8.00;2.00;;;;;;;9.62;62.92;99454.31;5024119;28;96873;-71
2022/04/05 00:32:47;;;;;;;4.43;1.58;;;;;;;9.56;62.68;99455.50;5026142;28;99167;-71
2022/04/05 00:35:14;;;;;;;6.63;1.65;;;;;;;9.31;63.16;99447.13;5019962;28;99281;-71
2022/04/05 00:37:41;;;;;;;6.13;1.45;;;;;;;9.39;63.52;99460.75;5019863;28;97683;-70
2022/04/05 00:40:09;;;;;;;4.55;1.50;;;;;;;9.26;63.65;99454.41;5021758;27;96837;-71
2022/04/05 00:42:37;;;;;;;9.30;1.60;;;;;;;9.64;62.99;99455.94;5026427;28;102271;-70
2022/04/05 00:45:08;;;;;;;5.40;2.00;;;;;;;9.90;62.23;99449.31;5017746;28;99382;-70
2022/04/05 00:47:35;;;;;;;8.18;1.55;;;;;;;9.53;63.73;99460.91;5025018;28;97370;-70
2022/04/05 00:50:03;;;;;;;5.88;1.52;;;;;;;9.69;62.49;99445.16;5023612;28;98570;-70
2022/04/05 00:52:29;;;;;;;8.43;1.95;;;;;;;9.79;62.71;99454.28;5019102;28;98720;-71
2022/04/05 00:55:00;;;;;;;7.10;1.67;;;;;;;9.53;63.48;99456.50;5021770;28;98839;-71
2022/04/05 00:57:29;;;;;;;5.60;1.42;;;;;;;9.78;63.25;99463.16;5017542;28;96645;-71
2022/04/05 01:00:01;;;;;;;4.15;1.60;;;;;;;9.76;63.33;99463.22;5019491;28;96900;-73
2022/04/05 01:02:30;;;;;;;9.98;2.20;;;;;;;10.32;61.57;99464.63;5015731;28;99757;-71
2022/04/05 01:04:57;;;;;;;8.35;2.38;;;;;;;10.11;62.43;99468.44;5022640;28;99073;-71
2022/04/05 01:07:25;;;;;;;14.00;2.95;;;;;;;9.89;62.61;99464.28;5022681;28;98540;-71
2022/04/05 01:09:53;;;;;;;9.98;3.33;;;;;;;9.25;64.92;99460.63;5022521;28;97073;-70
2022/04/05 01:12:22;;;;;;;7.53;2.22;;;;;;;9.03;65.34;99452.94;5021982;28;98840;-68
2022/04/05 01:14:49;;;;;;;8.98;2.15;;;;;;;9.08;64.87;99472.84;5024870;27;98849;-70
2022/04/05 01:17:16;;;;;;;9.20;2.20;;;;;;;9.18;64.00;99471.47;5016437;28;96796;-70
2022/04/05 01:19:44;;;;;;;10.60;2.50;;;;;;;8.78;65.29;99469.94;5017862;27;96840;-71
2022/04/05 01:22:10;;;;;;;7.50;2.67;;;;;;;9.20;64.15;99476.66;5020105;27;99035;-69
2022/04/05 01:24:38;;;;;;;10.10;2.53;;;;;;;9.14;63.99;99467.28;5029699;28;99265;-70
2022/04/05 01:27:06;;;;;;;12.75;1.85;;;;;;;9.06;63.83;99474.69;5022692;27;97175;-69
2022/04/05 01:29:33;;;;;;;10.98;2.28;;;;;;;9.25;63.64;99481.72;5025171;27;98861;-69
2022/04/05 01:32:02;;;;;;;8.20;1.63;;;;;;;9.87;62.40;99483.75;5015738;28;98887;-73
2022/04/05 01:34:30;;;;;;;12.13;2.50;;;;;;;9.96;61.95;99470.09;5023453;28;99372;-69
2022/04/05 01:36:58;;;;;;;11.88;2.40;;;;;;;9.50;62.13;99480.41;5022519;28;96870;-70
2022/04/05 01:39:27;;;;;;;5.50;1.92;;;;;;;8.70;62.75;99476.50;5022975;28;97753;-70
2022/04/05 01:41:56;;;;;;;10.63;2.03;;;;;;;9.35;62.17;99478.53;5023582;28;98955;-70
2022/04/05 01:44:23;;;;;;;10.30;1.60;;;;;;;9.27;61.08;99477.19;5022923;28;98842;-71
2022/04/05 01:46:50;;;;;;;12.02;1.58;;;;;;;9.40;60.45;99483.56;5017007;28;97761;-69
2022/04/05 01:49:17;;;;;;;11.85;1.45;;;;;;;9.07;60.30;99473.78;5022239;27;98400;-70
2022/04/05 01:51:45;;;;;;;7.93;1.20;;;;;;;8.69;61.81;99465.09;5021297;28;98873;-69
2022/04/05 01:54:13;;;;;;;8.88;1.30;;;;;;;9.12;60.03;99469.13;5020314;28;99193;-70
2022/04/05 01:56:44;;;;;;;13.02;1.55;;;;;;;8.92;60.60;99465.78;5022025;28;96895;-69
2022/04/05 01:59:14;;;;;;;9.35;1.50;;;;;;;9.34;60.28;99468.06;5022723;28;97192;-69
2022/04/05 02:01:40;;;;;;;10.13;1.75;;;;;;;9.24;60.24;99469.47;5022746;28;98301;-69
2022/04/05 02:04:08;;;;;;;10.88;1.67;;;;;;;9.40;60.28;99473.88;5021523;28;100646;-70
2022/04/05 02:06:35;;;;;;;7.07;1.27;;;;;;;9.41;60.60;99472.09;5014147;27;96883;-70
2022/04/05 02:09:02;;;;;;;10.32;1.92;;;;;;;9.57;59.58;99476.50;5021670;28;96963;-69
2022/04/05 02:11:28;;;;;;;16.23;2.13;;;;;;;9.99;58.78;99470.75;5022395;28;97624;-69
2022/04/05 02:13:55;;;;;;;10.55;1.85;;;;;;;9.66;59.84;99469.91;5023879;27;99025;-70
2022/04/05 02:16:23;;;;;;;10.43;1.67;;;;;;;9.42;60.42;99476.44;5022236;28;98728;-69
2022/04/05 02:18:49;;;;;;;11.80;1.63;;;;;;;9.89;59.43;99473.97;5020249;27;96776;-69
2022/04/05 02:21:15;;;;;;;8.35;1.38;;;;;;;9.65;60.00;99470.81;5023361;28;99327;-70
2022/04/05 02:23:42;;;;;;;16.02;2.40;;;;;;;9.87;59.02;99467.91;5023076;27;98444;-68
2022/04/05 02:26:08;;;;;;;10.40;1.58;;;;;;;10.28;58.32;99473.66;5016968;28;96738;-70
2022/04/05 02:28:35;;;;;;;9.75;1.65;;;;;;;10.31;57.59;99469.06;5014216;27;96836;-69
2022/04/05 02:31:01;;;;;;;9.95;1.92;;;;;;;10.36;57.97;99474.09;5022902;28;99144;-70
2022/04/05 02:33:29;;;;;;;11.43;1.60;;;;;;;10.18;58.01;99478.56;5026733;28;98865;-69
2022/04/05 02:35:56;;;;;;;11.30;1.98;;;;;;;10.35;57.72;99480.31;5018428;28;96712;-70
2022/04/05 02:38:23;;;;;;;6.00;1.27;;;;;;;9.95;58.94;99487.69;5016034;27;97597;-69
2022/04/05 02:40:49;;;;;;;10.88;1.42;;;;;;;10.25;58.15;99487.03;5019716;28;99918;-69
2022/04/05 02:43:16;;;;;;;6.65;1.75;;;;;;;10.13;58.44;99483.22;5024069;27;99118;-70
2022/04/05 02:45:42;;;;;;;10.50;1.27;;;;;;;9.93;58.56;99493.97;5021776;28;97605;-68
2022/04/05 02:48:08;;;;;;;11.63;2.30;;;;;;;10.16;58.20;99479.59;5024184;27;97490;-69
2022/04/05 02:50:37;;;;;;;10.45;1.70;;;;;;;10.38;57.72;99493.34;5021116;28;99420;-70
2022/04/05 02:53:03;;;;;;;9.10;1.58;;;;;;;9.25;61.11;99487.84;5023616;27;98950;-69
2022/04/05 02:55:30;;;;;;;7.35;1.33;;;;;;;9.61;59.51;99485.09;5022145;28;96746;-70
2022/04/05 02:57:56;;;;;;;7.97;1.58;;;;;;;8.82;62.02;99507.50;5021452;27;96762;-70
2022/04/05 03:00:23;;;;;;;7.22;1.15;;;;;;;9.43;61.10;99504.50;5018682;28;97843;-71
2022/04/05 03:02:50;;;;;;;14.93;1.40;;;;;;;9.69;59.79;99506.69;5024324;27;99312;-70
2022/04/05 03:05:19;;;;;;;7.85;1.67;;;;;;;10.00;58.72;99498.00;5026312;28;97570;-72
2022/04/05 03:07:46;;;;;;;11.65;1.48;;;;;;;10.11;58.28;99498.28;5023236;28;97235;-71
2022/04/05 03:10:13;;;;;;;15.25;1.92;;;;;;;9.98;58.82;99510.41;5024897;28;99373;-71
2022/04/05 03:12:40;;;;;;;13.45;1.95;;;;;;;9.54;59.93;99523.28;5024680;28;101359;-71
2022/04/05 03:15:09;;;;;;;11.15;2.20;;;;;;;9.30;60.31;99530.63;5026696;28;97318;-70
2022/04/05 03:17:36;;;;;;;9.25;1.92;;;;;;;9.24;60.50;99527.44;5022713;27;97848;-71
2022/04/05 03:20:04;;;;;;;10.10;1.65;;;;;;;9.41;59.37;99524.81;5024476;28;98919;-71
2022/04/05 03:22:31;;;;;;;14.52;2.28;;;;;;;9.42;59.42;99531.81;5020903;27;99001;-71
2022/04/05 03:24:59;;;;;;;14.18;1.83;;;;;;;9.19;59.57;99532.91;5028869;28;96752;-70
2022/04/05 03:27:26;;;;;;;9.18;1.73;;;;;;;9.33;59.55;99529.59;5024440;28;96831;-71
2022/04/05 03:29:52;;;;;;;10.18;1.45;;;;;;;9.45;58.50;99529.84;5024263;28;99206;-70
2022/04/05 03:32:19;;;;;;;9.98;1.60;;;;;;;9.75;58.56;99526.59;5022319;28;101780;-71
2022/04/05 03:34:46;;;;;;;12.85;2.17;;;;;;;9.51;58.49;99534.00;5024078;28;96757;-71
2022/04/05 03:37:13;;;;;;;10.02;1.95;;;;;;;9.90;57.64;99531.97;5021476;28;97580;-70
2022/04/05 03:39:40;;;;;;;14.95;1.98;;;;;;;9.83;57.08;99520.00;5022621;27;101881;-71
2022/04/05 03:42:08;;;;;;;18.10;2.35;;;;;;;9.86;57.29;99519.84;5020104;28;98845;-71
2022/04/05 03:44:35;;;;;;;16.58;2.08;;;;;;;10.12;56.64;99525.53;5020301;28;96791;-70
2022/04/05 03:47:01;;;;;;;9.95;1.80;;;;;;;9.89;56.62;99519.69;5019180;28;97010;-73
2022/04/05 03:49:28;;;;;;;15.98;1.95;;;;;;;10.06;56.40;99518.78;5022951;28;98993;-71
2022/04/05 03:51:55;;;;;;;12.32;2.17;;;;;;;9.63;57.58;99529.88;5025104;28;98176;-71
2022/04/05 03:54:22;;;;;;;14.00;1.75;;;;;;;9.88;57.39;99536.44;5024761;28;98323;-71
2022/04/05 03:56:49;;;;;;;15.60;2.13;;;;;;;9.38;58.60;99546.06;5012736;28;98351;-71
2022/04/05 03:59:16;;;;;;;16.33;1.90;;;;;;;9.96;57.31;99546.63;5020360;27;101740;-71
2022/04/05 04:01:43;;;;;;;12.95;1.95;;;;;;;9.91;57.04;99548.66;5022107;28;98405;-71
2022/04/05 04:04:09;;;;;;;12.23;1.50;;;;;;;10.48;55.91;99549.16;5022793;28;96892;-70
2022/04/05 04:06:36;;;;;;;17.13;1.80;;;;;;;10.28;55.77;99552.88;5022462;28;97721;-71
2022/04/05 04:09:03;;;;;;;8.95;1.80;;;;;;;10.25;56.56;99556.50;5018076;27;98996;-72
2022/04/05 04:11:36;;;;;;;11.07;1.67;;;;;;;9.64;57.30;99565.88;5021168;28;99163;-70
2022/04/05 04:14:02;;;;;;;14.90;2.03;;;;;;;9.86;56.90;99567.31;5021470;28;96650;-71
2022/04/05 04:16:30;;;;;;;15.50;2.00;;;;;;;9.99;57.18;99567.56;5027076;27;97720;-70
2022/04/05 04:18:57;;;;;;;9.48;1.75;;;;;;;10.05;56.79;99569.88;5018983;27;99941;-69
2022/04/05 04:21:23;;;;;;;13.35;1.83;;;;;;;9.56;57.68;99579.44;5025755;27;98875;-70
2022/04/05 04:23:50;;;;;;;13.18;2.05;;;;;;;9.80;57.31;99577.34;5020453;28;96743;-70
2022/04/05 04:26:17;;;;;;;14.70;2.20;;;;;;;10.10;56.62;99572.28;5025335;28;98616;-69
2022/04/05 04:28:43;;;;;;;13.73;2.00;;;;;;;10.18;55.68;99583.31;5023784;28;98970;-69
2022/04/05 04:31:10;;;;;;;10.85;1.75;;;;;;;10.22;55.76;99584.88;5022749;28;98261;-69
2022/04/05 04:33:38;;;;;;;11.07;1.73;;;;;;;9.65;57.45;99580.78;5023163;27;97046;-70
2022/04/05 04:36:04;;;;;;;8.88;1.83;;;;;;;9.94;56.66;99585.41;5023822;27;96770;-70
2022/04/05 04:38:31;;;;;;;10.50;1.40;;;;;;;9.81;56.28;99573.78;5023089;27;99897;-68
2022/04/05 04:40:58;;;;;;;16.10;1.55;;;;;;;9.84;56.72;99589.47;5022105;28;97884;-70
2022/04/05 04:43:26;;;;;;;14.52;3.00;;;;;;;9.58;57.67;99590.78;5020400;28;96926;-69
2022/04/05 04:45:53;;;;;;;9.45;1.98;;;;;;;9.56;57.05;99595.25;5022891;28;97811;-69
2022/04/05 04:48:19;;;;;;;12.70;1.85;;;;;;;9.47;57.31;99595.69;5020101;28;99102;-69
2022/04/05 04:50:47;;;;;;;11.98;1.95;;;;;;;9.73;56.84;99592.63;5022056;28;97510;-69
2022/04/05 04:53:14;;;;;;;14.35;2.45;;;;;;;9.93;56.11;99605.66;5017627;28;96920;-69
2022/04/05 04:55:41;;;;;;;11.45;1.90;;;;;;;9.44;56.30;99596.72;5018184;28;96923;-72
2022/04/05 04:58:08;;;;;;;13.50;2.95;;;;;;;9.63;56.38;99601.09;5021606;28;101259;-69
2022/04/05 05:00:35;;;;;;;13.35;2.10;;;;;;;10.23;54.77;99584.81;5023754;27;99402;-70
2022/04/05 05:03:01;;;;;;;13.77;2.92;;;;;;;10.09;54.90;99596.97;5020150;28;96777;-69
2022/04/05 05:05:28;;;;;;;17.80;2.40;;;;;;;9.88;55.02;99602.41;5018610;28;97928;-70
2022/04/05 05:07:56;;;;;;;15.85;1.90;;;;;;;10.27;54.90;99603.97;5018401;28;97801;-70
2022/04/05 05:10:23;;;;;;;14.93;1.88;;;;;;;9.51;56.24;99613.97;5013914;27;99202;-69
2022/04/05 05:12:50;;;;;;;18.35;2.20;;;;;;;9.35;57.12;99620.88;5019781;28;98363;-70
2022/04/05 05:15:18;;;;;;;12.68;2.03;;;;;;;9.41;56.30;99609.19;5017371;27;96875;-69
2022/04/05 05:17:46;;;;;;;10.30;2.30;;;;;;;9.38;57.23;99614.63;5025210;28;98980;-70
2022/04/05 05:20:14;;;;;;;12.68;2.83;;;;;;;9.78;55.90;99614.34;5019497;28;98200;-71
2022/04/05 05:22:41;;;;;;;9.65;1.90;;;;;;;9.78;55.85;99621.44;5021811;28;98778;-72
2022/04/05 05:25:10;;;;;;;13.70;2.15;;;;;;;10.15;54.78;99623.06;5023704;28;97198;-72
2022/04/05 05:27:38;;;;;;;14.60;2.88;;;;;;;9.74;56.32;99630.41;5023417;28;99081;-72
2022/04/05 05:30:05;;;;;;;9.70;2.08;;;;;;;9.91;55.93;99638.34;5025376;28;99254;-72
2022/04/05 05:32:32;;;;;;;16.15;2.85;;;;;;;9.40;56.62;99641.75;5020195;28;97578;-72
2022/04/05 05:34:58;;;;;;;15.45;2.20;;;;;;;9.15;57.06;99642.94;5019612;28;97763;-70
2022/04/05 05:37:25;;;;;;;17.83;2.13;;;;;;;8.71;59.09;99639.72;5023307;28;99203;-71
2022/04/05 05:39:51;;;;;;;15.95;2.22;;;;;;;8.82;58.00;99655.03;5022392;27;98737;-71
2022/04/05 05:42:19;;;;;;;20.27;2.33;;;;;;;9.28;57.40;99659.00;5021608;28;96968;-72
2022/04/05 05:44:47;;;;;;;22.38;2.30;;;;;;;9.28;56.95;99658.16;5021085;28;96844;-69
2022/04/05 05:47:13;;;;;;;18.10;2.78;;;;;;;9.03;57.49;99664.59;5020628;28;99378;-70
2022/04/05 05:49:40;;;;;;;14.10;2.50;;;;;;;9.15;57.55;99669.28;5015690;28;99189;-71
2022/04/05 05:52:07;;;;;;;24.48;2.58;;;;;;;9.61;56.47;99672.38;5022636;28;96727;-69
2022/04/05 05:54:33;;;;;;;12.75;2.22;;;;;;;9.97;55.03;99681.13;5019186;27;96730;-70
2022/04/05 05:57:00;;;;;;;13.52;2.33;;;;;;;9.59;55.39;99684.75;5020416;28;98959;-70
2022/04/05 05:59:28;;;;;;;13.43;2.38;;;;;;;9.02;56.42;99691.84;5025463;28;97505;-69
2022/04/05 06:01:56;;;;;;;15.10;2.35;;;;;;;9.25;56.54;99698.72;5022733;28;96751;-70
2022/04/05 06:04:23;;;;;;;13.88;2.03;;;;;;;9.65;55.20;99697.66;5023537;28;96872;-69
2022/04/05 06:06:49;;;;;;;13.38;2.78;;;;;;;9.53;55.56;99696.47;5020617;28;99334;-69
2022/04/05 06:09:16;;;;;;;9.68;2.03;;;;;;;9.06;56.32;99700.47;5018915;27;99096;-70
2022/04/05 06:11:42;;;;;;;15.80;2.00;;;;;;;9.65;55.33;99708.19;5024125;28;96843;-70
2022/04/05 06:14:09;;;;;;;10.65;2.28;;;;;;;9.60;54.73;99715.50;5017649;28;96743;-70
2022/04/05 06:16:37;;;;;;;12.70;1.85;;;;;;;9.91;54.22;99706.97;5015880;28;98112;-70
2022/04/05 06:19:11;;;;;;;14.38;2.10;;;;;;;9.82;54.16;99710.91;5018556;28;101969;-71
2022/04/05 06:21:37;;;;;;;9.07;1.95;;;;;;;9.49;55.02;99717.78;5020442;28;96818;-71
2022/04/05 06:24:04;;;;;;;12.75;2.30;;;;;;;9.35;55.71;99718.44;5022739;27;97068;-71
2022/04/05 06:26:31;;;;;;;16.67;2.88;;;;;;;9.45;55.34;99724.97;5014714;28;98884;-71
2022/04/05 06:28:57;;;;;;;30.25;2.42;;;;;;;9.92;54.30;99733.25;5017024;27;98596;-71
2022/04/05 06:31:24;;;;;;;14.43;2.65;;;;;;;10.00;53.28;99725.81;5017232;28;96731;-71
2022/04/05 06:33:52;;;;;;;14.77;2.20;;;;;;;10.10;53.84;99738.59;5022503;27;96732;-70
2022/04/05 06:36:19;;;;;;;13.88;2.28;;;;;;;10.11;53.12;99742.94;5015544;28;98852;-71
2022/04/05 06:38:45;;;;;;;16.20;2.40;;;;;;;9.89;52.89;99746.63;5021888;27;99396;-70
2022/04/05 06:41:12;;;;;;;12.25;2.60;;;;;;;10.16;52.28;99754.13;5018242;27;96796;-71
2022/04/05 06:43:38;;;;;;;10.10;1.90;;;;;;;9.98;53.44;99755.84;5018122;27;96846;-71
2022/04/05 06:46:05;;;;;;;8.77;2.08;;;;;;;9.58;54.28;99763.03;5019037;28;99371;-72
2022/04/05 06:48:32;;;;;;;11.73;1.90;;;;;;;9.58;53.97;99778.03;5015361;28;98920;-71
2022/04/05 06:50:59;;;;;;;11.05;2.25;;;;;;;9.87;53.11;99772.22;5015800;28;97624;-71
2022/04/05 06:53:26;;;;;;;13.90;2.22;;;;;;;9.50;53.80;99774.88;5013433;27;96723;-71
2022/04/05 06:55:52;;;;;;;11.85;1.83;;;;;;;9.32;53.88;99781.84;5016515;28;98972;-71
2022/04/05 06:58:19;;;;;;;9.70;1.50;;;;;;;10.30;51.96;99794.78;5010794;27;99880;-71
2022/04/05 07:00:45;;;;;;;10.02;1.40;;;;;;;10.77;50.59;99792.38;5023672;27;97055;-70
2022/04/05 07:03:12;;;;;;;10.38;1.88;;;;;;;9.70;52.53;99789.78;5023483;28;97843;-69
2022/04/05 07:05:42;;;;;;;13.25;1.67;;;;;;;9.53;52.94;99790.53;5026676;27;99236;-70
2022/04/05 07:08:10;;;;;;;13.95;1.70;;;;;;;10.28;51.52;99793.16;5020361;28;101201;-70
2022/04/05 07:10:38;;;;;;;12.05;1.95;;;;;;;9.88;52.32;99802.09;5018035;28;98317;-70
2022/04/05 07:13:08;;;;;;;12.05;1.67;;;;;;;10.21;50.27;99799.66;5017588;28;96795;-69
2022/04/05 07:15:35;;;;;;;9.48;1.27;;;;;;;10.95;49.33;99808.25;5015088;28;99109;-69
2022/04/05 07:18:01;;;;;;;6.90;1.60;;;;;;;10.42;49.74;99803.03;5025437;27;101152;-68
2022/04/05 07:20:28;;;;;;;13.15;1.55;;;;;;;10.00;50.25;99802.38;5022668;28;99070;-69
2022/04/05 07:22:54;;;;;;;13.70;1.83;;;;;;;10.78;49.66;99807.31;5024307;27;97062;-70
2022/04/05 07:25:22;;;;;;;6.97;1.92;;;;;;;10.52;49.38;99797.19;5021765;27;99669;-70
2022/04/05 07:27:49;;;;;;;7.18;1.30;;;;;;;10.65;48.84;99810.63;5024819;27;97740;-69
2022/04/05 07:30:16;;;;;;;9.65;1.77;;;;;;;10.64;48.31;99812.41;5028190;28;96823;-71
2022/04/05 07:32:45;;;;;;;12.00;2.72;;;;;;;9.81;49.48;99814.72;5026766;28;97050;-69
2022/04/05 07:35:13;;;;;;;11.73;2.08;;;;;;;10.50;48.43;99820.19;5025263;28;100744;-69
2022/04/05 07:37:40;;;;;;;24.75;4.30;;;;;;;10.84;47.23;99815.84;5026630;27;100034;-70
2022/04/05 07:40:10;;;;;;;22.02;4.88;;;;;;;11.50;45.98;99814.94;5028576;27;98241;-71
2022/04/05 07:42:39;;;;;;;12.27;3.00;;;;;;;11.49;45.19;99815.88;5025310;28;97913;-70
2022/04/05 07:45:07;;;;;;;7.13;1.35;;;;;;;11.32;45.15;99821.22;5022495;27;99552;-71
2022/04/05 07:47:34;;;;;;;6.35;1.42;;;;;;;10.66;46.32;99817.63;5022217;27;97798;-70
2022/04/05 07:50:01;;;;;;;12.80;1.25;;;;;;;11.28;44.91;99817.06;5023697;28;97219;-69
2022/04/05 07:52:27;;;;;;;9.27;1.48;;;;;;;11.59;44.32;99817.09;5021924;28;96948;-70
2022/04/05 07:54:54;;;;;;;9.00;1.73;;;;;;;10.94;44.77;99811.81;5021933;28;98107;-71
2022/04/05 07:57:21;;;;;;;11.30;1.58;;;;;;;11.05;45.33;99826.19;5017101;28;99206;-69
2022/04/05 07:59:49;;;;;;;9.57;1.40;;;;;;;10.53;45.39;99835.88;5016461;27;96864;-69
2022/04/05 08:02:15;;;;;;;7.28;1.15;;;;;;;11.37;44.46;99842.13;5010707;28;97902;-69
2022/04/05 08:04:42;;;;;;;8.38;1.30;;;;;;;11.45;43.88;99846.09;5015378;27;101246;-69
2022/04/05 08:07:08;;;;;;;11.75;1.60;;;;;;;11.47;43.85;99840.72;5021542;28;100362;-69
2022/04/05 08:09:35;;;;;;;10.48;1.00;;;;;;;11.54;43.38;99845.63;5015219;28;96882;-69
2022/04/05 08:12:02;;;;;;;4.88;1.10;;;;;;;11.52;43.09;99842.19;5021701;28;97178;-69
2022/04/05 08:14:29;;;;;;;7.22;1.60;;;;;;;11.71;41.85;99847.34;5014024;28;99356;-70
2022/04/05 08:16:58;;;;;;;7.07;1.35;;;;;;;11.25;41.61;99848.94;5011760;28;97878;-71
2022/04/05 08:19:25;;;;;;;7.95;1.33;;;;;;;11.34;41.43;99853.75;5014682;28;97705;-70
2022/04/05 08:21:51;;;;;;;8.25;1.58;;;;;;;11.27;41.24;99859.44;5015100;28;98634;-69
2022/04/05 08:24:20;;;;;;;9.52;1.33;;;;;;;11.59;40.41;99858.59;5009486;28;99509;-69
2022/04/05 08:26:46;;;;;;;8.30;1.35;;;;;;;10.70;42.54;99859.66;5012590;28;99116;-69
2022/04/05 08:29:13;;;;;;;18.90;1.60;;;;;;;10.98;41.15;99860.94;5012845;28;96813;-70
2022/04/05 08:31:39;;;;;;;8.60;1.23;;;;;;;11.48;40.63;99867.09;5013225;28;97681;-70
2022/04/05 08:34:07;;;;;;;8.35;1.52;;;;;;;12.04;40.77;99855.25;5017323;28;99090;-70
2022/04/05 08:36:34;;;;;;;9.77;1.60;;;;;;;12.29;39.90;99866.19;5020468;27;98241;-70
2022/04/05 08:39:00;;;;;;;4.28;0.90;;;;;;;11.55;40.56;99871.09;5010892;28;96772;-68
2022/04/05 08:41:29;;;;;;;4.30;1.00;;;;;;;12.36;39.40;99867.53;5015074;28;98663;-70
2022/04/05 08:43:57;;;;;;;5.25;1.23;;;;;;;12.09;39.22;99871.72;5011361;28;99282;-71
2022/04/05 08:46:24;;;;;;;8.90;1.95;;;;;;;12.25;39.33;99867.31;5017110;28;99201;-70
2022/04/05 08:48:53;;;;;;;8.45;1.30;;;;;;;11.82;39.92;99866.16;5022411;28;98585;-70
2022/04/05 08:51:21;;;;;;;4.75;1.20;;;;;;;11.83;39.56;99870.53;5020043;28;96956;-70
2022/04/05 08:53:48;;;;;;;9.00;1.75;;;;;;;12.94;37.69;99880.09;5016244;28;98836;-70
2022/04/05 08:56:16;;;;;;;9.35;1.35;;;;;;;12.31;38.70;99877.56;5013560;28;98831;-69
2022/04/05 08:58:42;;;;;;;11.07;1.45;;;;;;;13.61;36.21;99888.47;5010402;27;97537;-70
2022/04/05 09:01:09;;;;;;;11.05;2.20;;;;;;;12.83;37.66;99884.31;5011304;28;98201;-68
2022/04/05 09:03:36;;;;;;;7.55;1.55;;;;;;;12.20;37.56;99895.84;5014288;28;99053;-70
2022/04/05 09:06:28;;;;;;;9.13;2.03;;;;;;;11.81;38.09;99893.59;5014330;28;98976;-69
2022/04/05 09:08:59;;;;;;;8.13;1.10;;;;;;;12.73;37.13;99897.25;5013954;27;96946;-70
2022/04/05 09:11:29;;;;;;;7.55;1.45;;;;;;;12.34;38.08;99895.91;5016138;28;98760;-70
2022/04/05 09:13:59;;;;;;;9.65;1.23;;;;;;;12.86;36.58;99898.25;5013610;28;99062;-68
2022/04/05 09:16:31;;;;;;;8.32;1.30;;;;;;;13.15;35.49;99902.72;5010842;27;99192;-69
2022/04/05 09:18:58;;;;;;;7.22;0.82;;;;;;;12.16;36.92;99906.69;5013802;28;96713;-72
2022/04/05 09:21:25;;;;;;;8.20;1.02;;;;;;;12.73;36.55;99898.09;5015984;28;98509;-69
2022/04/05 09:24:07;;;;;;;8.95;1.85;;;;;;;12.82;36.18;99907.31;5019549;28;98880;-70
2022/04/05 09:26:43;;;;;;;13.82;1.50;;;;;;;12.50;36.92;99908.31;5019931;27;101599;-69
2022/04/05 09:29:10;;;;;;;9.80;1.42;;;;;;;13.21;36.18;99901.50;5016318;28;98776;-70
2022/04/05 09:31:47;;;;;;;7.18;1.13;;;;;;;12.06;38.19;99911.63;5018672;28;97367;-69
2022/04/05 09:34:16;;;;;;;12.25;1.38;;;;;;;12.94;37.26;99900.44;5019161;27;98224;-70
2022/04/05 09:36:45;;;;;;;5.70;1.17;;;;;;;13.64;36.06;99909.53;5011246;28;100535;-70
2022/04/05 09:39:22;;;;;;;7.60;1.20;;;;;;;13.03;36.62;99911.38;5012827;28;97445;-71
2022/04/05 09:41:52;;;;;;;9.00;1.17;;;;;;;13.02;37.02;99904.38;5021793;28;98587;-70
2022/04/05 09:44:27;;;;;;;8.73;1.10;;;;;;;11.38;38.90;99916.13;5017286;28;100033;-70
2022/04/05 09:47:03;;;;;;;7.75;0.98;;;;;;;11.82;38.71;99924.38;5010676;28;99135;-70
2022/04/05 09:49:35;;;;;;;5.30;1.35;;;;;;;11.95;38.55;99916.66;5012249;28;98407;-70
2022/04/05 09:52:02;;;;;;;12.80;1.70;;;;;;;12.13;38.56;99922.75;5013778;27;97392;-70
2022/04/05 09:54:31;;;;;;;13.43;1.98;;;;;;;12.77;37.32;99923.50;5015299;28;99298;-70
2022/04/05 09:57:06;;;;;;;9.63;1.70;;;;;;;12.23;38.27;99932.75;5011197;28;98780;-69
2022/04/05 09:59:40;;;;;;;6.60;1.50;;;;;;;12.37;38.62;99926.69;5015937;28;97173;-70
2022/04/05 10:02:13;;;;;;;10.95;1.45;;;;;;;12.70;37.96;99927.44;5018776;28;97454;-69
2022/04/05 10:05:00;;;;;;;6.15;1.15;;;;;;;13.00;37.86;99923.94;5024064;28;98212;-70
2022/04/05 10:07:28;;;;;;;7.55;1.50;;;;;;;12.37;39.12;99927.53;5009077;27;101153;-69
2022/04/05 10:09:56;;;;;;;13.25;1.65;;;;;;;12.43;38.85;99929.00;5018637;28;97238;-71
2022/04/05 10:12:23;;;;;;;11.50;2.00;;;;;;;12.94;37.92;99930.47;5013825;28;96990;-70
2022/04/05 10:14:50;;;;;;;6.72;1.27;;;;;;;12.88;38.21;99933.47;5014157;28;98970;-70
2022/04/05 10:17:19;;;;;;;7.13;1.20;;;;;;;12.76;38.06;99920.94;5010946;28;99326;-73
2022/04/05 10:19:49;;;;;;;5.57;1.02;;;;;;;12.52;38.08;99922.34;5012898;28;96761;-71
2022/04/05 10:22:17;;;;;;;10.00;1.30;;;;;;;13.11;37.50;99933.00;5014749;28;96991;-71
2022/04/05 10:24:45;;;;;;;9.88;1.70;;;;;;;13.25;37.47;99937.53;5015072;28;99524;-72
2022/04/05 10:27:26;;;;;;;10.00;1.63;;;;;;;13.89;36.38;99923.00;5013278;28;98037;-70
2022/04/05 10:30:04;;;;;;;5.43;1.15;;;;;;;13.47;36.20;99907.91;5009534;28;98554;-72
2022/04/05 10:32:37;;;;;;;9.93;1.77;;;;;;;14.22;36.07;99915.59;5012926;28;97863;-71
2022/04/05 10:35:06;;;;;;;9.63;1.25;;;;;;;14.61;35.52;99922.84;5009585;28;97066;-71
2022/04/05 10:37:35;;;;;;;13.15;1.40;;;;;;;14.26;34.78;99922.41;5010026;28;101353;-69
2022/04/05 10:40:14;;;;;;;7.82;1.60;;;;;;;13.81;36.15;99915.50;5016819;28;98765;-69
2022/04/05 10:42:44;;;;;;;8.60;1.42;;;;;;;13.72;36.01;99925.88;5016630;28;96822;-71
2022/04/05 10:45:13;;;;;;;5.60;1.10;;;;;;;12.46;37.66;99920.03;5010757;28;99448;-72
2022/04/05 10:47:59;;;;;;;6.65;1.05;;;;;;;12.92;37.65;99923.56;5011648;27;98998;-71
2022/04/05 10:50:28;;;;;;;6.78;1.08;;;;;;;13.24;36.41;99919.91;5010678;28;97710;-70
2022/04/05 10:53:15;;;;;;;9.90;1.00;;;;;;;13.76;35.57;99919.41;5010686;28;99672;-71
2022/04/05 10:56:14;;;;;;;4.28;0.82;;;;;;;13.78;35.90;99920.19;5012874;28;99289;-70
2022/04/05 10:59:01;;;;;;;7.03;1.05;;;;;;;13.22;36.20;99919.13;5006127;28;98522;-73
2022/04/05 11:01:42;;;;;;;3.85;0.80;;;;;;;13.55;36.58;99910.94;5016224;27;98880;-71
2022/04/05 11:04:31;;;;;;;5.90;1.25;;;;;;;13.77;36.10;99914.00;5015859;28;98524;-71
2022/04/05 11:07:10;;;;;;;8.93;1.35;;;;;;;14.01;35.54;99901.00;5014161;28;99261;-71
2022/04/05 11:09:48;;;;;;;8.02;1.35;;;;;;;14.18;35.76;99897.25;5014984;28;99209;-72
2022/04/05 11:12:18;;;;;;;5.75;0.93;;;;;;;14.80;34.40;99905.66;5012113;28;97185;-71
2022/04/05 11:14:50;;;;;;;7.00;1.10;;;;;;;13.46;36.29;99899.06;5013810;28;97374;-72
2022/04/05 11:17:19;;;;;;;7.50;1.17;;;;;;;13.98;34.74;99895.84;5015933;28;99747;-72
2022/04/05 11:19:47;;;;;;;9.10;1.10;;;;;;;14.00;35.04;99893.13;5025255;28;98838;-71
2022/04/05 11:22:31;;;;;;;9.98;1.48;;;;;;;13.96;34.95;99901.28;5019977;28;96881;-71
2022/04/05 11:25:00;;;;;;;5.15;1.20;;;;;;;14.13;34.77;99888.72;5021256;28;97005;-71
2022/04/05 11:27:28;;;;;;;4.05;0.98;;;;;;;14.48;34.11;99891.81;5018113;28;98233;-71
2022/04/05 11:30:37;;;;;;;9.75;1.48;;;;;;;14.64;33.59;99897.84;5022894;28;98835;-70
2022/04/05 11:33:34;;;;;;;2.80;0.80;;;;;;;13.41;34.37;99905.63;5019770;28;97110;-71
2022/04/05 11:36:03;;;;;;;5.65;1.05;;;;;;;13.62;34.84;99908.78;5017581;28;97201;-71
2022/04/05 11:38:33;;;;;;;6.28;1.10;;;;;;;14.50;34.12;99904.06;5021938;28;96767;-71